Time;durP1;ratioP1;P1;durP2;ratioP2;P2;SDS_P1;SDS_P2;PMS_P1;PMS_P2;Temp;Humidity;BMP_temperature;BMP_pressure;BME280_temperature;BME280_humidity;BME280_pressure;Samples;Min_cycle;Max_cycle;Signal;HPM_P1;HPM_P2
2023/07/29 00:01:53;;;;;;;7.35;5.68;;;18.50;99.90;;;;;;4986699;28;20402;-81
2023/07/29 00:04:20;;;;;;;5.95;5.45;;;18.40;99.90;;;;;;4986906;28;20050;-81
2023/07/29 00:06:46;;;;;;;7.65;5.55;;;18.50;99.90;;;;;;4986370;28;20043;-81
2023/07/29 00:09:12;;;;;;;5.93;5.35;;;18.50;99.90;;;;;;4983884;28;20046;-81
2023/07/29 00:11:38;;;;;;;6.80;5.57;;;18.50;99.90;;;;;;4983471;28;20078;-81
2023/07/29 00:14:03;;;;;;;7.93;5.50;;;18.50;99.90;;;;;;4984126;28;20588;-80
2023/07/29 00:16:29;;;;;;;7.30;5.68;;;18.50;99.90;;;;;;4969304;28;20042;-80
2023/07/29 00:18:55;;;;;;;6.90;6.20;;;18.50;99.90;;;;;;4986283;28;20074;-80
2023/07/29 00:21:20;;;;;;;7.05;6.30;;;18.50;99.90;;;;;;4982770;28;20061;-80
2023/07/29 00:23:46;;;;;;;7.85;7.05;;;18.50;99.90;;;;;;4983156;28;20403;-80
2023/07/29 00:26:12;;;;;;;7.05;6.40;;;18.50;99.90;;;;;;4985432;28;20118;-80
2023/07/29 00:28:37;;;;;;;6.32;5.75;;;18.40;99.90;;;;;;4985511;28;20087;-80
2023/07/29 00:31:03;;;;;;;6.85;6.15;;;18.40;99.90;;;;;;4985338;28;20039;-80
2023/07/29 00:33:28;;;;;;;7.43;6.68;;;18.40;99.90;;;;;;4983022;28;20054;-80
2023/07/29 00:35:54;;;;;;;7.70;6.90;;;18.40;99.90;;;;;;4982613;28;20109;-80
2023/07/29 00:38:21;;;;;;;7.00;6.45;;;18.40;99.90;;;;;;4957422;28;20478;-80
2023/07/29 00:40:46;;;;;;;8.68;6.80;;;18.40;99.90;;;;;;4982861;28;20113;-82
2023/07/29 00:43:12;;;;;;;9.40;7.78;;;18.40;99.90;;;;;;4965149;28;20494;-80
2023/07/29 00:45:38;;;;;;;7.40;6.35;;;18.30;99.90;;;;;;4982928;28;20487;-80
2023/07/29 00:48:04;;;;;;;7.25;6.47;;;18.30;99.90;;;;;;4983682;28;20042;-80
2023/07/29 00:50:32;;;;;;;9.13;7.07;;;18.30;99.90;;;;;;4971913;28;20498;-80
2023/07/29 00:52:58;;;;;;;7.93;7.10;;;18.30;99.90;;;;;;4985062;28;20043;-80
2023/07/29 00:55:24;;;;;;;7.38;6.68;;;18.30;99.90;;;;;;4996428;28;20094;-80
2023/07/29 00:57:53;;;;;;;7.38;6.68;;;18.30;99.90;;;;;;4992053;28;20118;-80
2023/07/29 01:00:18;;;;;;;7.13;6.53;;;18.30;99.90;;;;;;4983623;28;20042;-80
2023/07/29 01:02:44;;;;;;;7.45;6.75;;;18.30;99.90;;;;;;4982727;28;20130;-80
2023/07/29 01:05:13;;;;;;;10.80;8.18;;;18.30;99.90;;;;;;4983725;28;20043;-80
2023/07/29 01:07:41;;;;;;;7.38;6.68;;;18.30;99.90;;;;;;4985550;28;20034;-80
2023/07/29 01:10:37;;;;;;;8.52;7.18;;;18.10;99.90;;;;;;4977134;28;20105;-80
2023/07/29 01:13:41;;;;;;;8.43;7.63;;;18.20;99.90;;;;;;4985597;28;20046;-81
2023/07/29 01:16:19;;;;;;;7.50;6.90;;;18.20;99.90;;;;;;4983731;28;20066;-81
2023/07/29 01:18:48;;;;;;;8.10;7.30;;;18.20;99.90;;;;;;4981287;28;20112;-80
2023/07/29 01:21:16;;;;;;;11.30;7.38;;;18.10;99.90;;;;;;4984131;28;20070;-80
2023/07/29 01:23:42;;;;;;;9.73;8.50;;;18.10;99.90;;;;;;4985358;28;20042;-81
2023/07/29 01:26:08;;;;;;;9.00;8.07;;;18.00;99.90;;;;;;4983845;28;20042;-81
2023/07/29 01:28:33;;;;;;;8.70;7.90;;;18.30;99.90;;;;;;4981693;28;20050;-80
2023/07/29 01:31:32;;;;;;;10.18;8.25;;;18.00;99.90;;;;;;4982120;28;20050;-80
2023/07/29 01:34:20;;;;;;;8.65;7.78;;;18.00;99.90;;;;;;4978469;28;20053;-81
2023/07/29 01:36:48;;;;;;;8.35;7.53;;;17.90;99.90;;;;;;4965824;28;20564;-81
2023/07/29 01:39:16;;;;;;;8.27;7.47;;;18.00;99.90;;;;;;4965108;28;20046;-80
2023/07/29 01:41:43;;;;;;;9.70;7.93;;;17.90;99.90;;;;;;4981646;28;20035;-81
2023/07/29 01:44:10;;;;;;;8.88;8.07;;;17.90;99.90;;;;;;4982463;28;20444;-80
2023/07/29 01:46:37;;;;;;;9.43;8.38;;;17.90;99.90;;;;;;4984523;28;20475;-80
2023/07/29 01:49:02;;;;;;;11.52;8.05;;;17.80;99.90;;;;;;4984726;28;20046;-81
2023/07/29 01:51:28;;;;;;;9.82;7.82;;;17.80;99.90;;;;;;4956192;28;20043;-80
2023/07/29 01:53:55;;;;;;;8.60;7.80;;;17.70;99.90;;;;;;4980829;28;20114;-80
2023/07/29 01:56:21;;;;;;;8.88;8.07;;;17.80;99.90;;;;;;4983539;28;20046;-81
2023/07/29 01:58:46;;;;;;;8.13;7.32;;;17.70;99.90;;;;;;4967346;28;20053;-81
2023/07/29 02:01:12;;;;;;;9.00;7.93;;;17.70;99.90;;;;;;4965595;28;20133;-81
2023/07/29 02:03:38;;;;;;;8.77;7.95;;;17.70;99.90;;;;;;4981504;28;20039;-81
2023/07/29 02:06:04;;;;;;;8.90;8.02;;;17.70;99.90;;;;;;4981324;28;20118;-81
2023/07/29 02:08:30;;;;;;;9.40;7.75;;;17.60;99.90;;;;;;4966538;28;20478;-80
2023/07/29 02:10:55;;;;;;;11.80;8.80;;;17.70;99.90;;;;;;4984634;28;20089;-80
2023/07/29 02:13:21;;;;;;;11.48;8.63;;;17.60;99.90;;;;;;4981490;28;20034;-81
2023/07/29 02:15:46;;;;;;;8.40;7.60;;;17.60;99.90;;;;;;4963870;28;20045;-80
2023/07/29 02:18:12;;;;;;;10.15;7.63;;;17.60;99.90;;;;;;4948013;28;20050;-81
2023/07/29 02:20:38;;;;;;;8.88;8.00;;;17.60;99.90;;;;;;4990390;28;20061;-80
2023/07/29 02:23:06;;;;;;;10.25;7.72;;;17.60;99.90;;;;;;4967963;28;20133;-80
2023/07/29 02:25:35;;;;;;;10.35;8.00;;;17.50;99.90;;;;;;4980971;28;20122;-80
2023/07/29 02:28:03;;;;;;;9.48;8.20;;;17.50;99.90;;;;;;4980040;28;20093;-80
2023/07/29 02:30:28;;;;;;;9.00;8.10;;;17.60;99.90;;;;;;4966410;28;20046;-81
2023/07/29 02:32:54;;;;;;;9.65;8.10;;;17.60;99.90;;;;;;4984414;28;20042;-81
2023/07/29 02:35:20;;;;;;;9.35;7.40;;;17.50;99.90;;;;;;4982013;28;20514;-80
2023/07/29 02:37:45;;;;;;;9.02;8.10;;;17.50;99.90;;;;;;4984028;28;20042;-81
2023/07/29 02:40:11;;;;;;;8.93;8.13;;;17.50;99.90;;;;;;4992048;28;20053;-80
2023/07/29 02:42:38;;;;;;;8.02;7.25;;;17.40;99.90;;;;;;4988904;28;20050;-80
2023/07/29 02:45:04;;;;;;;12.65;8.70;;;17.40;99.90;;;;;;4984752;28;20046;-81
2023/07/29 02:47:30;;;;;;;9.65;7.82;;;17.40;99.90;;;;;;4981157;28;20137;-80
2023/07/29 02:49:55;;;;;;;8.13;7.35;;;17.40;99.90;;;;;;4979219;28;20460;-81
2023/07/29 02:52:21;;;;;;;8.32;7.53;;;17.40;99.90;;;;;;4964649;28;20122;-80
2023/07/29 02:54:46;;;;;;;8.45;7.20;;;17.30;99.90;;;;;;4983985;28;20031;-81
2023/07/29 02:57:14;;;;;;;9.90;7.80;;;17.30;99.90;;;;;;4982554;28;20530;-81
2023/07/29 02:59:40;;;;;;;8.63;7.82;;;17.30;99.90;;;;;;4980567;28;20035;-80
2023/07/29 03:02:05;;;;;;;9.50;8.60;;;17.30;99.90;;;;;;4980546;28;20117;-81
2023/07/29 03:04:31;;;;;;;10.07;7.75;;;17.40;99.90;;;;;;4965416;28;20050;-81
2023/07/29 03:06:56;;;;;;;8.50;7.68;;;17.40;99.90;;;;;;4984077;28;20032;-80
2023/07/29 03:09:22;;;;;;;8.82;8.02;;;17.30;99.90;;;;;;4982005;28;20549;-81
2023/07/29 03:11:48;;;;;;;8.07;7.28;;;17.30;99.90;;;;;;4981887;28;20097;-81
2023/07/29 03:14:16;;;;;;;10.23;7.50;;;17.20;99.90;;;;;;4986485;28;20070;-82
2023/07/29 03:16:45;;;;;;;9.48;7.65;;;17.20;99.90;;;;;;4963339;28;20046;-82
2023/07/29 03:19:10;;;;;;;8.20;7.43;;;17.20;99.90;;;;;;4980040;28;20442;-82
2023/07/29 03:21:37;;;;;;;8.10;7.10;;;17.10;99.90;;;;;;4983686;28;20038;-82
2023/07/29 03:24:03;;;;;;;7.70;6.57;;;17.10;99.90;;;;;;4965676;28;20505;-82
2023/07/29 03:26:28;;;;;;;9.18;6.60;;;17.10;99.90;;;;;;4981640;28;20042;-82
2023/07/29 03:28:54;;;;;;;8.77;7.50;;;17.10;99.90;;;;;;4980056;28;20105;-82
2023/07/29 03:31:19;;;;;;;8.52;6.75;;;17.10;99.90;;;;;;4980734;28;20131;-82
2023/07/29 03:33:45;;;;;;;7.55;6.85;;;17.10;99.90;;;;;;4983433;28;20039;-82
2023/07/29 03:36:11;;;;;;;8.60;6.93;;;17.10;99.90;;;;;;4983516;28;20050;-82
2023/07/29 03:38:39;;;;;;;8.98;7.38;;;17.10;99.90;;;;;;4979416;28;20042;-82
2023/07/29 03:41:08;;;;;;;8.20;7.45;;;17.00;99.90;;;;;;4980235;28;20042;-82
2023/07/29 03:43:34;;;;;;;7.43;6.38;;;17.00;99.90;;;;;;4965269;28;20046;-82
2023/07/29 03:46:00;;;;;;;7.05;6.35;;;17.00;99.90;;;;;;4983266;28;20034;-82
2023/07/29 03:48:25;;;;;;;8.80;6.47;;;17.00;99.90;;;;;;4981845;28;20450;-82
2023/07/29 03:50:51;;;;;;;10.23;7.15;;;17.00;99.90;;;;;;4980198;28;20058;-82
2023/07/29 03:53:17;;;;;;;7.00;6.28;;;16.90;99.90;;;;;;4962062;28;20130;-82
2023/07/29 03:55:43;;;;;;;8.68;7.28;;;17.00;99.90;;;;;;4965889;28;20069;-82
2023/07/29 03:58:08;;;;;;;9.95;7.15;;;17.00;99.90;;;;;;4949638;28;20047;-82
2023/07/29 04:00:34;;;;;;;9.43;6.18;;;16.90;99.90;;;;;;4979886;28;20093;-82
2023/07/29 04:02:59;;;;;;;6.22;5.63;;;16.90;99.90;;;;;;4983647;28;20526;-82
2023/07/29 04:05:25;;;;;;;8.35;6.10;;;16.90;99.90;;;;;;4967451;28;20129;-81
2023/07/29 04:07:52;;;;;;;8.88;6.30;;;17.50;99.90;;;;;;4986351;28;20050;-82
2023/07/29 04:10:17;;;;;;;6.32;5.72;;;16.90;99.90;;;;;;4987354;28;20062;-82
2023/07/29 04:12:43;;;;;;;7.68;6.15;;;16.90;99.90;;;;;;4976321;28;20486;-82
2023/07/29 04:15:09;;;;;;;6.93;5.72;;;16.90;99.90;;;;;;4990363;28;20042;-82
2023/07/29 04:17:34;;;;;;;8.02;5.55;;;16.80;99.90;;;;;;4984646;28;20058;-82
2023/07/29 04:20:00;;;;;;;6.70;5.55;;;16.90;99.90;;;;;;4989512;28;20053;-82
2023/07/29 04:22:26;;;;;;;10.48;5.47;;;16.80;99.90;;;;;;4989053;28;20050;-81
2023/07/29 04:24:51;;;;;;;7.53;5.68;;;16.90;99.90;;;;;;4994374;28;20041;-81
2023/07/29 04:27:17;;;;;;;6.90;5.72;;;16.80;99.90;;;;;;4989333;28;20588;-81
2023/07/29 04:29:44;;;;;;;7.18;5.38;;;16.80;99.90;;;;;;4985058;28;20121;-81
2023/07/29 04:32:09;;;;;;;7.68;5.38;;;16.80;99.90;;;;;;4967062;28;20105;-81
2023/07/29 04:34:35;;;;;;;6.68;5.63;;;16.90;99.90;;;;;;4985893;28;20039;-81
2023/07/29 04:37:00;;;;;;;7.25;4.65;;;16.80;99.90;;;;;;4970287;28;20494;-81
2023/07/29 04:39:26;;;;;;;8.77;5.07;;;16.80;99.90;;;;;;4986453;28;20042;-80
2023/07/29 04:41:52;;;;;;;8.07;5.13;;;16.80;99.90;;;;;;4982384;28;20494;-81
2023/07/29 04:44:18;;;;;;;11.13;5.50;;;16.80;99.90;;;;;;4982957;28;20047;-81
2023/07/29 04:46:43;;;;;;;10.73;5.07;;;16.80;99.90;;;;;;4985734;28;20038;-81
2023/07/29 04:49:09;;;;;;;6.72;4.57;;;16.80;99.90;;;;;;4982420;28;20046;-81
2023/07/29 04:51:34;;;;;;;9.38;4.93;;;16.70;99.90;;;;;;4984782;28;20042;-81
2023/07/29 04:54:00;;;;;;;8.95;4.50;;;17.00;99.90;;;;;;4986486;28;20547;-81
2023/07/29 04:56:26;;;;;;;6.05;5.45;;;16.80;99.90;;;;;;4985346;28;20042;-81
2023/07/29 04:58:52;;;;;;;6.63;4.43;;;16.80;99.90;;;;;;4965073;28;20533;-81
2023/07/29 05:01:17;;;;;;;6.30;4.30;;;16.80;99.90;;;;;;4982597;28;20108;-81
2023/07/29 05:03:43;;;;;;;7.82;4.72;;;16.80;99.90;;;;;;4984883;28;20055;-81
2023/07/29 05:06:09;;;;;;;7.55;4.95;;;16.90;99.90;;;;;;4988292;28;20399;-81
2023/07/29 05:08:35;;;;;;;8.27;4.78;;;16.80;99.90;;;;;;4983901;28;20122;-81
2023/07/29 05:11:00;;;;;;;8.38;5.03;;;16.80;99.90;;;;;;4968085;28;20050;-81
2023/07/29 05:13:26;;;;;;;4.82;4.05;;;16.80;99.90;;;;;;4984710;28;20043;-81
2023/07/29 05:15:52;;;;;;;6.45;4.40;;;17.80;99.90;;;;;;4982471;28;20157;-81
2023/07/29 05:18:18;;;;;;;6.80;4.57;;;17.40;99.90;;;;;;4964103;28;20058;-81
2023/07/29 05:20:43;;;;;;;5.30;4.40;;;17.10;99.90;;;;;;4984785;28;20039;-81
2023/07/29 05:23:09;;;;;;;5.00;3.90;;;16.70;99.90;;;;;;4986261;28;20060;-80
2023/07/29 05:25:35;;;;;;;7.03;4.53;;;16.90;99.90;;;;;;4966487;28;20048;-80
2023/07/29 05:28:01;;;;;;;6.13;3.70;;;16.80;99.90;;;;;;4982041;28;20046;-80
2023/07/29 05:30:30;;;;;;;5.20;3.95;;;16.80;99.90;;;;;;4983411;28;20475;-81
2023/07/29 05:32:57;;;;;;;6.10;3.72;;;16.80;99.90;;;;;;4958597;28;20447;-81
2023/07/29 05:35:22;;;;;;;6.88;3.95;;;17.70;99.90;;;;;;4982760;28;20069;-81
2023/07/29 05:37:48;;;;;;;5.05;3.67;;;16.80;99.90;;;;;;4982633;28;20058;-80
2023/07/29 05:40:16;;;;;;;5.85;3.25;;;16.80;99.90;;;;;;4981395;28;20085;-81
2023/07/29 05:42:41;;;;;;;4.82;3.80;;;16.80;99.90;;;;;;4984672;28;20233;-81
2023/07/29 05:45:08;;;;;;;5.40;3.40;;;16.90;99.90;;;;;;4982510;28;20539;-81
2023/07/29 05:47:33;;;;;;;5.65;3.35;;;16.90;99.90;;;;;;4982640;28;20506;-81
2023/07/29 05:50:01;;;;;;;6.72;4.07;;;17.00;99.90;;;;;;4982492;28;20070;-81
2023/07/29 05:52:27;;;;;;;7.93;3.63;;;16.90;99.90;;;;;;4965447;28;20086;-80
2023/07/29 05:54:53;;;;;;;5.75;3.08;;;16.90;99.90;;;;;;4985946;28;20503;-81
2023/07/29 05:57:18;;;;;;;5.88;2.88;;;16.90;99.90;;;;;;4985915;28;20042;-81
2023/07/29 05:59:44;;;;;;;4.45;3.35;;;16.90;99.90;;;;;;4969086;28;20053;-82
2023/07/29 06:02:10;;;;;;;3.80;3.30;;;17.00;99.90;;;;;;4983260;28;20051;-81
2023/07/29 06:04:35;;;;;;;8.20;3.25;;;16.90;99.90;;;;;;4983923;28;20050;-81
2023/07/29 06:07:01;;;;;;;7.80;3.05;;;17.10;99.90;;;;;;4988138;28;20038;-81
2023/07/29 06:09:27;;;;;;;5.70;2.75;;;16.90;99.90;;;;;;4973986;28;20042;-81
2023/07/29 06:11:52;;;;;;;4.95;2.88;;;17.00;99.90;;;;;;4989177;28;20046;-81
2023/07/29 06:14:18;;;;;;;4.70;2.78;;;17.00;99.90;;;;;;4981942;28;20498;-81
2023/07/29 06:16:43;;;;;;;8.07;3.50;;;17.00;99.90;;;;;;4984594;28;20046;-81
2023/07/29 06:19:09;;;;;;;7.07;4.03;;;17.00;99.90;;;;;;4986054;28;20038;-81
2023/07/29 06:21:38;;;;;;;9.90;3.08;;;17.10;99.90;;;;;;4967195;28;20096;-81
2023/07/29 06:24:04;;;;;;;5.85;2.78;;;17.70;99.90;;;;;;4982239;28;20069;-81
2023/07/29 06:26:29;;;;;;;6.45;2.83;;;17.10;99.90;;;;;;4948831;28;20479;-81
2023/07/29 06:28:55;;;;;;;6.57;2.83;;;17.10;99.90;;;;;;4983932;28;20065;-82
2023/07/29 06:31:21;;;;;;;4.47;3.00;;;17.20;99.90;;;;;;4951721;28;20092;-81
2023/07/29 06:33:46;;;;;;;5.82;2.95;;;17.20;99.90;;;;;;4965124;28;20053;-81
2023/07/29 06:36:12;;;;;;;5.85;2.78;;;17.20;99.90;;;;;;4981962;28;20403;-81
2023/07/29 06:38:38;;;;;;;3.00;2.10;;;17.40;99.90;;;;;;4982501;28;20080;-81
2023/07/29 06:41:04;;;;;;;4.68;2.88;;;17.30;99.90;;;;;;4984483;28;20039;-81
2023/07/29 06:43:30;;;;;;;8.35;5.88;;;17.30;99.90;;;;;;4984994;28;20050;-81
2023/07/29 06:45:55;;;;;;;7.47;3.88;;;17.30;99.90;;;;;;4978090;28;20035;-82
2023/07/29 06:48:21;;;;;;;5.88;2.95;;;17.50;99.90;;;;;;4984215;28;20038;-81
2023/07/29 06:50:47;;;;;;;5.90;3.08;;;17.40;99.90;;;;;;4983257;28;20051;-81
2023/07/29 06:53:14;;;;;;;5.78;2.92;;;17.40;99.90;;;;;;4982151;28;20460;-81
2023/07/29 06:55:40;;;;;;;5.43;3.05;;;17.50;99.90;;;;;;4980534;28;20470;-82
2023/07/29 06:58:21;;;;;;;7.13;3.08;;;17.50;99.90;;;;;;4996099;28;20027;-81
2023/07/29 07:00:46;;;;;;;9.07;3.35;;;17.00;99.90;;;;;;4974354;28;20105;-81
2023/07/29 07:03:14;;;;;;;6.57;3.40;;;17.50;99.90;;;;;;4996686;28;20066;-81
2023/07/29 07:05:39;;;;;;;9.18;4.13;;;17.60;99.90;;;;;;4990993;28;20049;-81
2023/07/29 07:08:05;;;;;;;5.10;2.92;;;17.70;99.90;;;;;;4973269;28;20050;-81
2023/07/29 07:10:33;;;;;;;5.10;3.83;;;17.70;99.90;;;;;;4949535;28;20038;-81
2023/07/29 07:12:59;;;;;;;15.80;4.93;;;17.80;99.90;;;;;;4995330;28;20046;-82
2023/07/29 07:15:24;;;;;;;7.93;3.75;;;17.80;99.90;;;;;;4947080;28;20502;-81
2023/07/29 07:17:51;;;;;;;7.60;4.10;;;17.80;99.90;;;;;;4980736;28;20173;-82
2023/07/29 07:20:17;;;;;;;9.32;4.03;;;17.90;99.90;;;;;;4983751;28;20046;-81
2023/07/29 07:22:42;;;;;;;9.25;4.13;;;17.90;99.90;;;;;;4983884;28;20042;-81
2023/07/29 07:25:08;;;;;;;5.40;3.45;;;17.90;99.90;;;;;;4962538;28;20035;-81
2023/07/29 07:27:34;;;;;;;8.75;4.10;;;18.00;99.90;;;;;;4980243;28;20031;-81
2023/07/29 07:29:59;;;;;;;6.78;3.70;;;18.00;99.90;;;;;;4982426;28;20138;-81
2023/07/29 07:32:26;;;;;;;11.60;4.53;;;18.00;99.90;;;;;;4983702;28;20046;-81
2023/07/29 07:34:51;;;;;;;12.55;4.20;;;18.00;99.90;;;;;;4965365;28;20050;-80
2023/07/29 07:37:17;;;;;;;8.43;4.57;;;18.20;99.90;;;;;;4983678;28;20042;-81
2023/07/29 07:39:42;;;;;;;13.30;5.43;;;18.10;99.90;;;;;;4995804;28;20434;-81
2023/07/29 07:42:08;;;;;;;12.48;5.22;;;18.10;99.90;;;;;;4985440;28;20045;-82
2023/07/29 07:44:34;;;;;;;14.07;4.80;;;18.20;99.90;;;;;;4965460;28;20509;-82
2023/07/29 07:46:59;;;;;;;10.27;4.80;;;18.20;99.90;;;;;;4953038;28;20539;-81
2023/07/29 07:49:25;;;;;;;8.80;4.00;;;18.30;99.90;;;;;;4970944;28;20069;-81
2023/07/29 07:51:51;;;;;;;10.15;5.32;;;18.30;99.90;;;;;;4977360;28;20124;-81
2023/07/29 07:54:16;;;;;;;10.43;4.78;;;18.30;99.90;;;;;;4994002;28;20054;-82
2023/07/29 07:56:43;;;;;;;7.18;3.67;;;18.40;99.90;;;;;;4987347;28;20344;-82
2023/07/29 07:59:09;;;;;;;6.40;3.78;;;18.40;99.90;;;;;;4970759;28;20072;-81
2023/07/29 08:01:38;;;;;;;11.52;4.07;;;18.50;99.90;;;;;;4987672;28;20129;-81
2023/07/29 08:04:05;;;;;;;11.80;3.70;;;18.40;99.90;;;;;;4985126;28;20169;-82
2023/07/29 08:06:32;;;;;;;13.80;3.90;;;18.50;99.90;;;;;;4966156;28;20043;-81
2023/07/29 08:08:58;;;;;;;6.80;3.35;;;18.60;99.90;;;;;;4985236;28;20047;-81
2023/07/29 08:11:24;;;;;;;8.88;3.40;;;18.70;99.90;;;;;;4987315;28;20056;-80
2023/07/29 08:13:50;;;;;;;10.30;3.67;;;18.70;99.90;;;;;;4986691;28;20057;-80
2023/07/29 08:16:15;;;;;;;9.63;3.15;;;18.70;99.90;;;;;;4950678;28;20043;-81
2023/07/29 08:18:41;;;;;;;7.38;2.80;;;18.90;99.90;;;;;;4966080;28;20047;-81
2023/07/29 08:21:07;;;;;;;5.07;3.20;;;18.80;99.90;;;;;;4985662;28;20050;-81
2023/07/29 08:23:34;;;;;;;9.23;2.90;;;18.90;99.90;;;;;;4987042;28;20034;-80
2023/07/29 08:26:05;;;;;;;8.45;3.13;;;18.90;99.90;;;;;;4985733;28;20479;-80
2023/07/29 08:28:33;;;;;;;10.05;3.38;;;18.80;99.90;;;;;;4983414;28;20114;-80
2023/07/29 08:30:59;;;;;;;5.50;2.25;;;18.80;99.90;;;;;;4984605;28;20708;-81
2023/07/29 08:33:28;;;;;;;6.95;2.38;;;19.00;99.90;;;;;;4965764;28;20062;-80
2023/07/29 08:35:54;;;;;;;6.35;1.98;;;19.00;99.90;;;;;;4993482;28;20122;-80
2023/07/29 08:38:20;;;;;;;7.68;2.20;;;19.00;99.90;;;;;;4984713;28;20203;-82
2023/07/29 08:40:53;;;;;;;6.32;2.22;;;19.10;99.90;;;;;;4966054;28;20511;-81
2023/07/29 08:43:23;;;;;;;7.25;2.00;;;19.00;99.90;;;;;;4975114;28;20434;-82
2023/07/29 08:45:50;;;;;;;5.32;1.73;;;19.00;99.90;;;;;;4982937;28;20574;-81
2023/07/29 08:48:23;;;;;;;6.82;2.08;;;19.10;99.90;;;;;;4983937;28;20041;-82
2023/07/29 08:50:50;;;;;;;6.43;1.67;;;19.20;99.90;;;;;;4985977;28;20498;-82
2023/07/29 08:53:16;;;;;;;8.27;1.67;;;19.10;99.90;;;;;;4983268;28;20042;-82
2023/07/29 08:55:42;;;;;;;2.75;1.80;;;19.10;99.90;;;;;;4982370;28;20042;-82
2023/07/29 08:58:08;;;;;;;5.85;1.90;;;19.20;99.90;;;;;;4984060;28;20046;-82
2023/07/29 09:00:34;;;;;;;4.82;1.50;;;19.30;99.90;;;;;;4985689;28;20039;-82
2023/07/29 09:03:06;;;;;;;5.70;2.13;;;19.30;99.90;;;;;;4984647;28;20121;-81
2023/07/29 09:05:33;;;;;;;4.07;1.65;;;19.30;99.90;;;;;;4982704;28;20174;-81
2023/07/29 09:07:59;;;;;;;4.88;1.65;;;19.30;99.90;;;;;;4965315;28;20047;-81
2023/07/29 09:10:26;;;;;;;2.88;1.73;;;19.30;99.90;;;;;;4985278;28;20042;-81
2023/07/29 09:12:52;;;;;;;3.92;1.20;;;19.30;99.90;;;;;;4968344;28;20132;-80
2023/07/29 09:15:27;;;;;;;4.53;1.38;;;19.50;99.90;;;;;;4982440;28;20518;-79
2023/07/29 09:17:53;;;;;;;4.40;1.40;;;19.40;99.90;;;;;;4964822;28;20569;-79
2023/07/29 09:20:27;;;;;;;5.43;1.55;;;19.40;99.90;;;;;;4985449;28;20097;-79
2023/07/29 09:22:59;;;;;;;5.85;1.38;;;19.40;99.90;;;;;;4986340;28;20126;-79
2023/07/29 09:25:26;;;;;;;7.50;1.45;;;19.60;99.90;;;;;;4974658;28;20047;-79
2023/07/29 09:27:52;;;;;;;3.42;1.25;;;19.70;99.90;;;;;;4965138;28;20046;-79
2023/07/29 09:30:18;;;;;;;2.33;1.00;;;19.80;99.90;;;;;;4984653;28;20585;-79
2023/07/29 09:32:44;;;;;;;2.65;1.10;;;19.90;99.90;;;;;;4988753;28;20035;-78
2023/07/29 09:35:11;;;;;;;4.10;1.00;;;20.00;99.90;;;;;;4992599;28;20065;-79
2023/07/29 09:37:38;;;;;;;4.35;1.73;;;20.00;99.90;;;;;;4993963;28;20455;-79
2023/07/29 09:40:05;;;;;;;7.00;1.77;;;20.00;99.90;;;;;;4985483;28;20043;-79
2023/07/29 09:42:31;;;;;;;3.42;1.00;;;20.10;99.90;;;;;;4981689;28;20093;-79
2023/07/29 09:44:57;;;;;;;3.97;1.75;;;20.20;99.90;;;;;;4963930;28;20046;-79
2023/07/29 09:47:25;;;;;;;5.13;1.40;;;20.20;99.90;;;;;;4981963;28;20050;-79
2023/07/29 09:49:51;;;;;;;2.50;1.35;;;20.30;99.90;;;;;;4981729;28;20031;-78
2023/07/29 09:52:22;;;;;;;2.72;1.23;;;20.30;99.90;;;;;;4983253;28;20054;-79
2023/07/29 09:54:48;;;;;;;2.33;1.30;;;20.30;99.90;;;;;;4967945;28;20084;-79
2023/07/29 09:57:18;;;;;;;2.85;1.23;;;20.40;99.90;;;;;;4983243;28;20068;-79
2023/07/29 09:59:54;;;;;;;5.60;1.30;;;20.40;99.90;;;;;;4980776;28;20176;-79
2023/07/29 10:02:21;;;;;;;3.33;1.63;;;20.40;99.90;;;;;;4983441;28;20134;-79
2023/07/29 10:04:46;;;;;;;4.10;1.20;;;20.40;99.90;;;;;;4984068;28;20462;-79
2023/07/29 10:07:12;;;;;;;6.82;1.27;;;20.40;99.90;;;;;;4983787;28;20129;-79
2023/07/29 10:09:39;;;;;;;3.10;0.95;;;20.40;99.90;;;;;;4981513;28;20055;-79
2023/07/29 10:12:09;;;;;;;3.45;1.40;;;20.40;99.90;;;;;;4980761;28;20493;-79
2023/07/29 10:14:36;;;;;;;5.38;1.27;;;20.40;99.90;;;;;;4973831;28;20468;-79
2023/07/29 10:17:02;;;;;;;6.63;1.15;;;20.40;99.90;;;;;;4981331;28;20038;-78
2023/07/29 10:19:30;;;;;;;3.42;1.25;;;20.40;99.90;;;;;;4989296;28;20137;-79
2023/07/29 10:21:59;;;;;;;3.35;1.02;;;20.50;99.90;;;;;;4981405;28;20046;-78
2023/07/29 10:24:30;;;;;;;3.22;0.85;;;20.50;99.90;;;;;;4983239;28;20304;-79
2023/07/29 10:26:59;;;;;;;1.83;0.68;;;20.50;99.90;;;;;;4983936;28;20054;-82
2023/07/29 10:29:28;;;;;;;3.30;1.10;;;20.40;99.90;;;;;;4982492;28;20511;-81
2023/07/29 10:31:57;;;;;;;3.78;1.20;;;20.40;99.90;;;;;;4981431;28;20042;-82
2023/07/29 10:34:24;;;;;;;3.28;1.13;;;20.40;99.90;;;;;;4982443;28;20114;-79
2023/07/29 10:36:50;;;;;;;5.22;1.10;;;20.50;99.90;;;;;;4978795;28;20304;-80
2023/07/29 10:39:16;;;;;;;4.18;1.58;;;20.60;99.90;;;;;;4981593;28;20050;-79
2023/07/29 10:41:59;;;;;;;7.07;1.70;;;20.60;99.90;;;;;;4983503;28;20048;-79
2023/07/29 10:44:39;;;;;;;3.20;1.27;;;20.70;99.90;;;;;;4982500;28;20561;-79
2023/07/29 10:47:16;;;;;;;5.05;1.20;;;20.60;99.90;;;;;;4980573;28;20054;-79
2023/07/29 10:49:43;;;;;;;4.50;1.48;;;20.00;99.90;;;;;;4956279;28;20054;-80
2023/07/29 10:52:14;;;;;;;5.00;1.50;;;20.80;99.90;;;;;;4980912;28;20099;-78
2023/07/29 10:54:47;;;;;;;4.03;1.50;;;20.90;99.90;;;;;;4972450;28;20035;-79
2023/07/29 10:57:14;;;;;;;2.77;1.40;;;20.80;99.90;;;;;;4980672;28;20047;-79
2023/07/29 10:59:40;;;;;;;1.67;0.80;;;20.70;99.90;;;;;;4973802;28;20047;-79
2023/07/29 11:02:17;;;;;;;2.75;0.98;;;20.60;99.90;;;;;;4989644;28;20056;-80
2023/07/29 11:04:52;;;;;;;2.05;0.65;;;20.50;99.90;;;;;;4977120;28;20066;-81
2023/07/29 11:07:26;;;;;;;3.50;0.90;;;20.40;99.90;;;;;;4982937;28;20038;-82
2023/07/29 11:10:00;;;;;;;4.25;1.05;;;20.40;99.90;;;;;;4983364;28;20394;-81
2023/07/29 11:12:36;;;;;;;4.32;0.80;;;20.30;99.90;;;;;;4998438;28;20070;-81
2023/07/29 11:15:10;;;;;;;3.85;1.15;;;20.40;99.90;;;;;;4984851;28;20047;-82
2023/07/29 11:17:38;;;;;;;2.45;0.80;;;20.40;99.90;;;;;;4997802;28;20129;-82
2023/07/29 11:20:04;;;;;;;5.38;1.38;;;20.50;99.90;;;;;;4973577;28;20093;-82
2023/07/29 11:22:30;;;;;;;4.50;1.00;;;20.50;99.90;;;;;;4975719;28;20046;-82
2023/07/29 11:24:56;;;;;;;2.60;1.05;;;20.50;99.90;;;;;;4985657;28;20057;-82
2023/07/29 11:27:22;;;;;;;2.63;1.10;;;20.60;99.90;;;;;;4968583;28;20101;-81
2023/07/29 11:29:48;;;;;;;6.45;1.90;;;20.70;99.90;;;;;;4987977;28;20446;-80
2023/07/29 11:32:15;;;;;;;4.68;1.20;;;20.60;99.90;;;;;;4987937;28;20101;-81
2023/07/29 11:34:41;;;;;;;5.75;1.25;;;20.60;99.90;;;;;;4986421;28;20517;-80
2023/07/29 11:37:08;;;;;;;6.93;1.60;;;20.80;99.90;;;;;;4984113;28;20503;-81
2023/07/29 11:39:40;;;;;;;4.53;1.30;;;20.90;99.90;;;;;;4968688;28;20402;-80
2023/07/29 11:42:10;;;;;;;5.13;1.50;;;20.90;99.90;;;;;;4987929;28;20117;-81
2023/07/29 11:44:36;;;;;;;7.80;1.85;;;20.90;99.90;;;;;;4984878;28;20046;-80
2023/07/29 11:47:02;;;;;;;3.88;1.83;;;20.80;99.90;;;;;;4984066;28;20054;-80
2023/07/29 11:49:28;;;;;;;2.88;1.58;;;20.80;99.90;;;;;;4984816;28;20054;-80
2023/07/29 11:51:53;;;;;;;5.80;1.80;;;20.80;99.90;;;;;;4986748;28;20030;-80
2023/07/29 11:54:21;;;;;;;2.03;1.55;;;20.80;99.90;;;;;;4970228;28;20134;-81
2023/07/29 11:56:47;;;;;;;7.05;1.45;;;20.70;99.90;;;;;;4983802;28;20031;-80
2023/07/29 11:59:14;;;;;;;2.33;1.40;;;20.70;99.90;;;;;;4983133;28;20039;-81
2023/07/29 12:01:40;;;;;;;4.45;1.88;;;20.70;99.90;;;;;;4985961;28;20050;-80
2023/07/29 12:04:06;;;;;;;2.78;1.35;;;20.60;99.90;;;;;;4986784;28;20146;-80
2023/07/29 12:06:32;;;;;;;4.45;1.38;;;20.60;99.90;;;;;;4968541;28;20112;-81
2023/07/29 12:08:58;;;;;;;3.95;1.02;;;20.50;99.90;;;;;;4980069;28;20113;-80
2023/07/29 12:11:24;;;;;;;3.38;1.67;;;20.50;99.90;;;;;;4969224;28;20138;-80
2023/07/29 12:13:49;;;;;;;10.55;1.95;;;20.50;99.90;;;;;;4984949;28;20043;-80
2023/07/29 12:16:18;;;;;;;5.75;1.85;;;20.50;99.90;;;;;;4983394;28;20054;-88
2023/07/29 12:18:44;;;;;;;5.35;1.80;;;20.40;99.90;;;;;;4985125;28;20438;-81
2023/07/29 12:21:09;;;;;;;5.95;2.40;;;20.50;99.90;;;;;;4969980;28;20501;-80
2023/07/29 12:23:36;;;;;;;5.22;1.70;;;20.70;99.90;;;;;;4986023;28;20088;-80
2023/07/29 12:26:02;;;;;;;5.82;2.17;;;20.70;99.90;;;;;;4965351;28;20043;-81
2023/07/29 12:28:28;;;;;;;6.28;1.85;;;20.70;99.90;;;;;;4983081;28;20145;-80
2023/07/29 12:30:54;;;;;;;3.10;1.70;;;20.60;99.90;;;;;;4986736;28;20057;-81
2023/07/29 12:33:38;;;;;;;6.38;1.75;;;20.60;99.90;;;;;;4968768;28;20121;-80
2023/07/29 12:36:04;;;;;;;7.40;2.10;;;20.60;99.90;;;;;;4975450;28;20053;-80
2023/07/29 12:38:30;;;;;;;4.13;1.55;;;20.50;99.90;;;;;;4971687;28;20043;-82
2023/07/29 12:40:56;;;;;;;6.82;2.20;;;20.50;99.90;;;;;;4981832;28;20043;-80
2023/07/29 12:43:22;;;;;;;7.75;1.88;;;20.50;99.90;;;;;;4989197;28;20125;-80
2023/07/29 12:45:50;;;;;;;5.60;2.30;;;20.60;99.90;;;;;;4983606;28;20415;-80